Meldrim, Georgia
Current Conditions -  °F | °C
As of 8:53 AM on Monday 20 Oct 2014 (Local Time) from KSAV Reporting Station
Few Clouds Few Clouds  
Wind Chill: 61°   Ceiling: Unl
Heat Index: 61°   Visibility: 10mi
Dew Point: 53°   Wind: 3mph
Humidity: 75%   Direction: 10°N
Pressure: 30.13"   Gusts: NA
Location:  32.14°N, 81.38°W
Report Text: KSAV 201253Z 01003KT 10SM FEW025 16/12 A3013 RMK AO2 SLP202 T01610117
Loading
Personal Weather Stations






























Interactive Weather Map
Tropical Storm Tracking
New forecast layout! Learn more

10-Day Weather Forecast

Advertisements
Track Severe Weather on mobile